createdAt,value
2023-04-09T00:00:18.457Z,86.06
2023-04-09T00:01:19.512Z,85.68
2023-04-09T00:01:59.440Z,85.66
2023-04-09T00:02:46.805Z,85.55
2023-04-09T00:03:40.687Z,85.17
2023-04-09T00:04:34.501Z,85.21
2023-04-09T00:05:28.405Z,85.07
2023-04-09T00:06:24.592Z,85.29
2023-04-09T00:07:18.496Z,85.17
2023-04-09T00:08:05.466Z,85.32
2023-04-09T00:08:39.531Z,85.04
2023-04-09T00:09:27.460Z,85.04
2023-04-09T00:10:01.541Z,85.26
2023-04-09T00:10:48.390Z,85.01
2023-04-09T00:11:22.656Z,85.11
2023-04-09T00:12:10.431Z,85.16
2023-04-09T00:12:44.577Z,85.26
2023-04-09T00:13:35.446Z,84.60
2023-04-09T00:14:18.534Z,84.87
2023-04-09T00:14:58.448Z,84.79
2023-04-09T00:15:38.470Z,84.50
2023-04-09T00:16:18.485Z,84.62
2023-04-09T00:17:12.463Z,84.72
2023-04-09T00:18:06.459Z,84.70
2023-04-09T00:18:46.434Z,84.72
2023-04-09T00:19:26.551Z,84.42
2023-04-09T00:20:07.433Z,84.17
2023-04-09T00:20:47.463Z,84.13
2023-04-09T00:21:28.435Z,84.23
2023-04-09T00:22:08.483Z,84.47
2023-04-09T00:22:48.431Z,84.32
2023-04-09T00:23:28.480Z,84.00
2023-04-09T00:24:08.420Z,83.90
2023-04-09T00:24:48.515Z,84.17
2023-04-09T00:25:29.395Z,83.81
2023-04-09T00:26:09.556Z,84.11
2023-04-09T00:26:49.428Z,83.95
2023-04-09T00:27:29.507Z,83.74
2023-04-09T00:28:10.393Z,83.54
2023-04-09T00:28:50.720Z,83.52
2023-04-09T00:29:31.457Z,83.70
2023-04-09T00:30:12.534Z,83.17
2023-04-09T00:30:52.411Z,83.51
2023-04-09T00:31:33.278Z,83.36
2023-04-09T00:32:14.423Z,83.18
2023-04-09T00:32:54.901Z,83.29
2023-04-09T00:33:35.454Z,83.76
2023-04-09T00:34:15.854Z,83.78
2023-04-09T00:34:56.390Z,84.11
2023-04-09T00:35:36.601Z,83.90
2023-04-09T00:36:16.437Z,83.70
2023-04-09T00:36:56.477Z,83.96
2023-04-09T00:37:37.390Z,83.57
2023-04-09T00:38:17.582Z,83.77
2023-04-09T00:38:58.505Z,83.56
2023-04-09T00:39:38.537Z,83.38
2023-04-09T00:40:19.395Z,83.34
2023-04-09T00:40:59.515Z,83.45
2023-04-09T00:41:40.437Z,83.28
2023-04-09T00:42:21.658Z,83.37
2023-04-09T00:43:02.430Z,82.96
2023-04-09T00:43:42.519Z,83.21
2023-04-09T00:44:22.401Z,83.19
2023-04-09T00:45:02.533Z,83.12
2023-04-09T00:45:43.500Z,83.48
2023-04-09T00:46:24.491Z,83.44
2023-04-09T00:47:06.417Z,83.47
2023-04-09T00:47:46.798Z,83.00
2023-04-09T00:48:26.406Z,83.13
2023-04-09T00:49:03.677Z,82.83
2023-04-09T00:49:44.363Z,83.08
2023-04-09T00:50:24.532Z,82.92
2023-04-09T00:51:04.414Z,83.04
2023-04-09T00:51:44.451Z,83.16
2023-04-09T00:52:24.376Z,82.66
2023-04-09T00:53:04.465Z,82.73
2023-04-09T00:53:45.386Z,82.76
2023-04-09T00:54:25.488Z,82.60
2023-04-09T00:55:13.384Z,82.23
2023-04-09T00:55:53.536Z,83.06
2023-04-09T00:56:34.389Z,83.06
2023-04-09T00:57:14.461Z,83.00
2023-04-09T00:57:55.388Z,82.77
2023-04-09T00:58:35.786Z,83.36
2023-04-09T00:59:15.394Z,83.14
2023-04-09T00:59:55.510Z,82.91
2023-04-09T01:00:35.413Z,83.14
2023-04-09T01:01:15.592Z,83.05
2023-04-09T01:01:56.475Z,83.34
2023-04-09T01:02:36.748Z,82.99
2023-04-09T01:03:18.448Z,83.02
2023-04-09T01:03:58.460Z,83.03
2023-04-09T01:04:39.368Z,82.76
2023-04-09T01:05:20.455Z,83.26
2023-04-09T01:06:17.428Z,82.88
2023-04-09T01:07:15.430Z,82.80
2023-04-09T01:08:45.363Z,82.90
2023-04-09T01:09:49.412Z,82.58
2023-04-09T01:10:59.394Z,82.77
2023-04-09T01:12:15.419Z,82.38
2023-04-09T01:13:26.394Z,82.34
2023-04-09T01:14:38.513Z,82.41
2023-04-09T01:15:43.470Z,82.08
2023-04-09T01:16:37.435Z,82.08
2023-04-09T01:17:53.502Z,82.56
2023-04-09T01:19:13.411Z,82.32
2023-04-09T01:20:32.331Z,82.19
2023-04-09T01:21:31.382Z,82.07
2023-04-09T01:23:06.404Z,81.97
2023-04-09T01:24:31.315Z,81.83
2023-04-09T01:25:55.515Z,82.20
2023-04-09T01:26:59.329Z,81.95
2023-04-09T01:28:07.330Z,81.99
2023-04-09T01:29:07.369Z,82.17
2023-04-09T01:30:04.382Z,82.32
2023-04-09T01:31:07.575Z,82.44
2023-04-09T01:32:02.333Z,82.17
2023-04-09T01:32:57.400Z,82.45
2023-04-09T01:33:38.374Z,82.22
2023-04-09T01:34:18.425Z,82.49
2023-04-09T01:34:59.623Z,82.28
2023-04-09T01:35:39.394Z,82.24
2023-04-09T01:36:20.336Z,82.64
2023-04-09T01:37:04.461Z,82.60
2023-04-09T01:37:45.347Z,82.85
2023-04-09T01:38:27.430Z,82.62
2023-04-09T01:39:08.347Z,82.95
2023-04-09T01:39:49.436Z,82.93
2023-04-09T01:40:30.434Z,82.56
2023-04-09T01:41:11.412Z,82.95
2023-04-09T01:41:52.326Z,82.96
2023-04-09T01:42:32.448Z,83.22
2023-04-09T01:43:14.339Z,83.01
2023-04-09T01:43:57.475Z,83.18
2023-04-09T01:44:38.448Z,83.21
2023-04-09T01:45:18.420Z,83.59
2023-04-09T01:45:59.431Z,83.29
2023-04-09T01:46:40.461Z,83.61
2023-04-09T01:47:20.323Z,83.60
2023-04-09T01:48:01.608Z,83.86
2023-04-09T01:48:42.308Z,83.64
2023-04-09T01:49:23.514Z,83.85
2023-04-09T01:50:04.362Z,83.81
2023-04-09T01:50:44.494Z,83.52
2023-04-09T01:51:25.315Z,84.38
2023-04-09T01:52:05.439Z,84.05
2023-04-09T01:52:46.329Z,84.59
2023-04-09T01:53:28.457Z,84.61
2023-04-09T01:54:11.322Z,85.07
2023-04-09T01:54:51.410Z,84.78
2023-04-09T01:55:32.358Z,85.20
2023-04-09T01:56:13.431Z,85.16
2023-04-09T01:56:55.343Z,85.01
2023-04-09T01:57:35.599Z,84.32
2023-04-09T01:58:16.328Z,84.91
2023-04-09T01:58:56.370Z,85.00
2023-04-09T01:59:36.300Z,84.88
2023-04-09T02:00:17.373Z,84.78
2023-04-09T02:01:00.369Z,85.16
2023-04-09T02:01:49.655Z,84.97
2023-04-09T02:03:10.497Z,85.05
2023-04-09T02:04:16.307Z,84.71
2023-04-09T02:05:12.327Z,84.66
2023-04-09T02:06:37.344Z,84.30
2023-04-09T02:07:55.383Z,84.14
2023-04-09T02:08:50.513Z,84.02
2023-04-09T02:09:45.305Z,84.38
2023-04-09T02:10:41.458Z,84.24
2023-04-09T02:11:37.398Z,83.89
2023-04-09T02:12:32.298Z,83.72
2023-04-09T02:13:29.285Z,83.89
2023-04-09T02:14:24.269Z,83.72
2023-04-09T02:15:20.320Z,83.62
2023-04-09T02:16:15.473Z,83.64
2023-04-09T02:17:03.341Z,83.55
2023-04-09T02:17:37.436Z,83.31
2023-04-09T02:18:44.346Z,83.61
2023-04-09T02:19:18.373Z,83.43
2023-04-09T02:20:05.295Z,83.80
2023-04-09T02:20:39.367Z,83.76
2023-04-09T02:21:26.299Z,83.87
2023-04-09T02:22:00.400Z,83.83
2023-04-09T02:22:40.570Z,83.70
2023-04-09T02:23:23.420Z,84.08
2023-04-09T02:24:03.330Z,83.70
2023-04-09T02:24:43.353Z,83.69
2023-04-09T02:25:23.276Z,83.54
2023-04-09T02:26:03.350Z,83.55
2023-04-09T02:26:43.330Z,83.54
2023-04-09T02:27:23.350Z,83.44
2023-04-09T02:28:03.355Z,83.18
2023-04-09T02:28:43.370Z,83.02
2023-04-09T02:29:23.277Z,82.97
2023-04-09T02:30:04.028Z,82.84
2023-04-09T02:30:44.323Z,83.13
2023-04-09T02:31:24.645Z,82.87
2023-04-09T02:32:04.309Z,82.91
2023-04-09T02:32:44.430Z,83.25
2023-04-09T02:33:24.313Z,83.34
2023-04-09T02:34:04.390Z,83.43
2023-04-09T02:34:44.270Z,83.55
2023-04-09T02:35:24.454Z,83.39
2023-04-09T02:36:04.309Z,83.75
2023-04-09T02:36:44.339Z,84.07
2023-04-09T02:37:25.264Z,83.78
2023-04-09T02:38:05.424Z,83.81
2023-04-09T02:38:48.312Z,83.54
2023-04-09T02:39:28.379Z,83.64
2023-04-09T02:40:08.268Z,83.77
2023-04-09T02:40:48.337Z,83.68
2023-04-09T02:41:28.279Z,83.58
2023-04-09T02:42:08.367Z,84.06
2023-04-09T02:42:48.310Z,84.30
2023-04-09T02:43:28.395Z,84.45
2023-04-09T02:44:08.288Z,84.36
2023-04-09T02:44:48.410Z,84.38
2023-04-09T02:45:28.284Z,84.54
2023-04-09T02:46:08.631Z,84.75
2023-04-09T02:46:49.620Z,84.56
2023-04-09T02:47:30.535Z,84.68
2023-04-09T02:48:11.286Z,84.81
2023-04-09T02:48:51.606Z,84.97
2023-04-09T02:49:32.269Z,84.87
2023-04-09T02:50:13.390Z,84.95
2023-04-09T02:50:53.294Z,85.25
2023-04-09T02:51:34.332Z,85.15
2023-04-09T02:52:17.319Z,85.39
2023-04-09T02:52:57.378Z,85.35
2023-04-09T02:53:37.248Z,85.52
2023-04-09T02:54:17.447Z,85.60
2023-04-09T02:54:58.352Z,85.46
2023-04-09T02:55:38.349Z,85.74
2023-04-09T02:56:18.354Z,86.28
2023-04-09T02:56:58.391Z,85.79
2023-04-09T02:57:40.271Z,85.87
2023-04-09T02:58:20.419Z,86.17
2023-04-09T02:59:00.333Z,85.98
2023-04-09T02:59:40.733Z,85.97
2023-04-09T03:00:21.294Z,87.03
2023-04-09T03:01:01.405Z,87.00
2023-04-09T03:01:41.350Z,86.60
2023-04-09T03:02:22.619Z,86.81
2023-04-09T03:03:02.363Z,87.08
2023-04-09T03:03:43.118Z,87.31
2023-04-09T03:04:23.384Z,87.33
2023-04-09T03:05:03.371Z,87.34
2023-04-09T03:05:44.338Z,87.29
2023-04-09T03:06:25.407Z,87.63
2023-04-09T03:07:05.257Z,87.33
2023-04-09T03:07:45.380Z,87.20
2023-04-09T03:08:25.257Z,87.62
2023-04-09T03:09:05.334Z,87.30
2023-04-09T03:09:45.299Z,87.28
2023-04-09T03:10:25.470Z,87.70
2023-04-09T03:11:05.274Z,87.16
2023-04-09T03:11:45.340Z,87.53
2023-04-09T03:12:25.299Z,87.13
2023-04-09T03:13:05.321Z,86.84
2023-04-09T03:13:45.256Z,87.27
2023-04-09T03:14:25.408Z,86.90
2023-04-09T03:15:05.302Z,87.28
2023-04-09T03:15:45.513Z,87.67
2023-04-09T03:16:25.403Z,87.62
2023-04-09T03:17:19.257Z,86.98
2023-04-09T03:18:13.247Z,87.63
2023-04-09T03:19:07.226Z,87.10
2023-04-09T03:20:01.256Z,86.74
2023-04-09T03:20:55.245Z,86.71
2023-04-09T03:21:42.247Z,86.50
2023-04-09T03:22:16.334Z,86.53
2023-04-09T03:23:03.229Z,86.74
2023-04-09T03:23:37.380Z,86.58
2023-04-09T03:24:24.275Z,86.47
2023-04-09T03:24:58.331Z,86.15
2023-04-09T03:25:45.229Z,86.22
2023-04-09T03:26:19.332Z,86.69
2023-04-09T03:27:06.304Z,86.68
2023-04-09T03:27:40.334Z,86.81
2023-04-09T03:28:28.230Z,86.50
2023-04-09T03:29:02.348Z,86.39
2023-04-09T03:29:49.221Z,86.79
2023-04-09T03:30:23.320Z,86.68
2023-04-09T03:31:10.245Z,86.99
2023-04-09T03:31:44.416Z,87.91
2023-04-09T03:32:31.252Z,87.42
2023-04-09T03:33:05.399Z,87.23
2023-04-09T03:33:52.235Z,87.12
2023-04-09T03:34:26.350Z,86.83
2023-04-09T03:35:14.234Z,87.17
2023-04-09T03:35:48.346Z,86.84
2023-04-09T03:36:35.260Z,87.13
2023-04-09T03:37:09.360Z,87.15
2023-04-09T03:37:56.231Z,87.08
2023-04-09T03:38:30.360Z,87.13
2023-04-09T03:39:17.200Z,87.48
2023-04-09T03:39:51.386Z,87.36
2023-04-09T03:40:40.216Z,87.02
2023-04-09T03:41:14.306Z,87.09
2023-04-09T03:42:03.244Z,86.98
2023-04-09T03:42:37.471Z,87.09
2023-04-09T03:43:18.259Z,86.97
2023-04-09T03:43:58.362Z,87.07
2023-04-09T03:44:38.224Z,87.25
2023-04-09T03:45:18.288Z,87.25
2023-04-09T03:45:59.232Z,87.81
2023-04-09T03:46:39.366Z,87.57
2023-04-09T03:47:20.269Z,87.95
2023-04-09T03:48:00.334Z,87.81
2023-04-09T03:48:40.248Z,88.08
2023-04-09T03:49:20.444Z,88.14
2023-04-09T03:50:01.282Z,88.01
2023-04-09T03:50:48.345Z,88.30
2023-04-09T03:51:29.207Z,88.78
2023-04-09T03:52:09.355Z,88.56
2023-04-09T03:52:49.242Z,88.35
2023-04-09T03:53:29.312Z,88.32
2023-04-09T03:54:09.256Z,88.59
2023-04-09T03:54:49.291Z,88.33
2023-04-09T03:55:30.261Z,88.27
2023-04-09T03:56:10.309Z,88.07
2023-04-09T03:56:50.214Z,88.82
2023-04-09T03:57:30.501Z,88.99
2023-04-09T03:58:10.206Z,88.72
2023-04-09T03:58:51.587Z,89.10
2023-04-09T03:59:33.205Z,88.81
2023-04-09T04:00:14.284Z,88.75
2023-04-09T04:00:55.207Z,88.85
2023-04-09T04:01:35.389Z,88.75
2023-04-09T04:03:19.254Z,89.01
2023-04-09T04:03:53.362Z,88.92
2023-04-09T04:04:40.266Z,89.01
2023-04-09T04:05:17.357Z,89.16
2023-04-09T04:06:11.212Z,89.17
2023-04-09T04:06:45.321Z,89.01
2023-04-09T04:07:32.199Z,88.90
2023-04-09T04:08:06.259Z,88.85
2023-04-09T04:08:53.331Z,88.82
2023-04-09T04:09:27.246Z,88.76
2023-04-09T04:10:07.205Z,88.63
2023-04-09T04:10:47.285Z,88.54
2023-04-09T04:11:28.182Z,88.69
2023-04-09T04:12:08.289Z,88.62
2023-04-09T04:12:48.246Z,88.21
2023-04-09T04:13:28.377Z,87.99
2023-04-09T04:14:08.190Z,88.21
2023-04-09T04:14:48.276Z,88.33
2023-04-09T04:15:28.208Z,88.13
2023-04-09T04:16:09.307Z,88.03
2023-04-09T04:16:49.204Z,88.22
2023-04-09T04:17:29.314Z,88.77
2023-04-09T04:18:09.157Z,88.46
2023-04-09T04:18:49.346Z,88.67
2023-04-09T04:19:29.204Z,88.47
2023-04-09T04:20:24.187Z,88.38
2023-04-09T04:21:04.280Z,88.46
2023-04-09T04:21:44.269Z,89.05
2023-04-09T04:22:26.105Z,89.57
2023-04-09T04:23:06.647Z,89.58
2023-04-09T04:23:47.209Z,89.65
2023-04-09T04:24:27.242Z,90.02
2023-04-09T04:25:07.174Z,90.42
2023-04-09T04:25:50.713Z,90.00
2023-04-09T04:26:32.215Z,89.97
2023-04-09T04:27:12.276Z,89.69
2023-04-09T04:27:53.181Z,89.55
2023-04-09T04:28:33.261Z,89.91
2023-04-09T04:29:13.156Z,90.03
2023-04-09T04:29:53.237Z,90.39
2023-04-09T04:30:33.163Z,89.77
2023-04-09T04:31:19.319Z,89.67
2023-04-09T04:32:00.391Z,89.73
2023-04-09T04:32:40.436Z,90.05
2023-04-09T04:33:20.164Z,89.41
2023-04-09T04:34:00.281Z,89.49
2023-04-09T04:34:40.179Z,89.34
2023-04-09T04:35:21.336Z,90.23
2023-04-09T04:36:18.168Z,91.13
2023-04-09T04:36:58.253Z,90.96
2023-04-09T04:37:40.175Z,90.71
2023-04-09T04:38:20.264Z,90.60
2023-04-09T04:39:00.217Z,91.77
2023-04-09T04:39:40.467Z,92.62
2023-04-09T04:40:21.186Z,91.98
2023-04-09T04:41:01.355Z,91.99
2023-04-09T04:41:41.149Z,92.44
2023-04-09T04:42:21.293Z,92.36
2023-04-09T04:43:01.178Z,91.94
2023-04-09T04:43:41.556Z,92.40
2023-04-09T04:44:22.242Z,92.41
2023-04-09T04:45:02.306Z,92.91
2023-04-09T04:45:42.193Z,93.47
2023-04-09T04:46:22.283Z,93.02
2023-04-09T04:47:02.149Z,92.24
2023-04-09T04:47:42.279Z,92.50
2023-04-09T04:48:23.146Z,92.26
2023-04-09T04:49:03.551Z,91.73
2023-04-09T04:49:44.146Z,92.67
2023-04-09T04:50:24.243Z,92.68
2023-04-09T04:51:07.196Z,93.62
2023-04-09T04:51:47.290Z,93.91
2023-04-09T04:52:28.179Z,94.60
2023-04-09T04:53:08.297Z,93.46
2023-04-09T04:53:48.182Z,93.94
2023-04-09T04:54:28.366Z,94.79
2023-04-09T04:55:08.140Z,94.07
2023-04-09T04:55:48.228Z,93.79
2023-04-09T04:56:29.300Z,93.46
2023-04-09T04:57:10.210Z,93.34
2023-04-09T04:57:50.158Z,93.08
2023-04-09T04:58:31.464Z,93.28
2023-04-09T04:59:12.168Z,93.08
2023-04-09T04:59:52.252Z,93.28
2023-04-09T05:00:33.141Z,93.74
2023-04-09T05:01:13.308Z,94.00
2023-04-09T05:01:53.293Z,94.53
2023-04-09T05:02:33.480Z,93.98
2023-04-09T05:03:13.195Z,94.36
2023-04-09T05:03:53.576Z,94.37
2023-04-09T05:04:34.204Z,94.52
2023-04-09T05:05:14.259Z,94.61
2023-04-09T05:05:55.225Z,94.98
2023-04-09T05:06:35.314Z,95.11
2023-04-09T05:07:15.147Z,94.79
2023-04-09T05:07:55.235Z,94.53
2023-04-09T05:08:36.115Z,93.99
2023-04-09T05:09:16.324Z,93.48
2023-04-09T05:09:57.335Z,93.66
2023-04-09T05:10:37.351Z,93.60
2023-04-09T05:11:21.162Z,93.93
2023-04-09T05:12:01.801Z,94.41
2023-04-09T05:12:43.155Z,94.41
2023-04-09T05:13:23.294Z,93.89
2023-04-09T05:14:03.138Z,93.87
2023-04-09T05:14:43.194Z,93.85
2023-04-09T05:15:23.151Z,93.75
2023-04-09T05:16:03.701Z,93.66
2023-04-09T05:16:45.194Z,93.66
2023-04-09T05:17:25.317Z,93.87
2023-04-09T05:18:06.107Z,94.15
2023-04-09T05:18:46.277Z,94.13
2023-04-09T05:19:26.137Z,93.90
2023-04-09T05:20:06.345Z,93.81
2023-04-09T05:20:47.141Z,93.26
2023-04-09T05:21:27.666Z,94.23
2023-04-09T05:22:08.108Z,94.52
2023-04-09T05:22:48.299Z,95.20
2023-04-09T05:23:28.119Z,95.60
2023-04-09T05:24:08.228Z,95.36
2023-04-09T05:24:49.122Z,95.47
2023-04-09T05:25:29.213Z,95.45
2023-04-09T05:26:09.250Z,95.49
2023-04-09T05:26:49.235Z,95.61
2023-04-09T05:27:37.110Z,95.56
2023-04-09T05:28:11.371Z,95.57
2023-04-09T05:28:59.174Z,96.76
2023-04-09T05:29:33.245Z,96.46
2023-04-09T05:30:20.125Z,97.54
2023-04-09T05:30:54.242Z,97.41
2023-04-09T05:31:34.160Z,97.80
2023-04-09T05:32:14.187Z,97.24
2023-04-09T05:32:55.354Z,97.35
2023-04-09T05:33:38.226Z,97.38
2023-04-09T05:34:25.126Z,97.07
2023-04-09T05:35:01.650Z,96.62
2023-04-09T05:35:53.139Z,96.61
2023-04-09T05:36:27.509Z,96.04
2023-04-09T05:37:08.132Z,97.38
2023-04-09T05:37:42.280Z,97.39
2023-04-09T05:38:15.859Z,97.58
2023-04-09T05:38:56.296Z,97.87
2023-04-09T05:39:30.248Z,98.51
2023-04-09T05:40:04.412Z,98.47
2023-04-09T05:40:44.168Z,98.37
2023-04-09T05:41:18.286Z,98.58
2023-04-09T05:41:52.574Z,98.33
2023-04-09T05:42:32.250Z,98.00
2023-04-09T05:43:09.282Z,98.18
2023-04-09T05:43:43.243Z,98.57
2023-04-09T05:44:23.130Z,99.58
2023-04-09T05:44:57.408Z,99.02
2023-04-09T05:45:31.856Z,98.35
2023-04-09T05:46:13.235Z,98.25
2023-04-09T05:46:47.326Z,98.01
2023-04-09T05:47:20.999Z,98.23
2023-04-09T05:48:01.184Z,98.38
2023-04-09T05:48:35.241Z,97.89
2023-04-09T05:49:08.939Z,97.70
2023-04-09T05:49:50.236Z,98.17
2023-04-09T05:50:30.411Z,99.11
2023-04-09T05:51:11.112Z,99.04
2023-04-09T05:51:51.221Z,98.70
2023-04-09T05:52:31.090Z,99.13
2023-04-09T05:53:20.334Z,99.48
2023-04-09T05:53:54.873Z,100.00
2023-04-09T05:54:43.198Z,100.00
2023-04-09T05:55:17.012Z,100.00
2023-04-09T05:56:04.170Z,100.00
2023-04-09T05:56:37.989Z,100.00
2023-04-09T05:57:25.171Z,100.00
2023-04-09T05:58:00.959Z,100.00
2023-04-09T05:58:42.154Z,100.00
2023-04-09T05:59:16.181Z,100.00
2023-04-09T05:59:49.873Z,100.00
2023-04-09T06:00:33.724Z,100.00
2023-04-09T06:01:07.312Z,100.00
2023-04-09T06:01:42.302Z,100.00
2023-04-09T06:02:25.618Z,100.00
2023-04-09T06:02:59.316Z,100.00
2023-04-09T06:03:32.941Z,100.00
2023-04-09T06:04:13.366Z,100.00
2023-04-09T06:04:47.239Z,100.00
2023-04-09T06:05:22.149Z,100.00
2023-04-09T06:06:05.096Z,100.00
2023-04-09T06:06:39.218Z,100.00
2023-04-09T06:07:12.860Z,100.00
2023-04-09T06:07:54.116Z,100.00
2023-04-09T06:08:28.186Z,100.00
2023-04-09T06:09:01.848Z,100.00
2023-04-09T06:09:49.936Z,100.00
2023-04-09T06:10:24.227Z,100.00
2023-04-09T06:10:59.629Z,100.00
2023-04-09T06:11:41.086Z,100.00
2023-04-09T06:12:15.821Z,100.00
2023-04-09T06:12:49.837Z,100.00
2023-04-09T06:13:31.089Z,100.00
2023-04-09T06:14:09.280Z,100.00
2023-04-09T06:14:42.843Z,100.00
2023-04-09T06:15:24.156Z,100.00
2023-04-09T06:15:58.197Z,100.00
2023-04-09T06:16:36.392Z,100.00
2023-04-09T06:17:17.160Z,100.00
2023-04-09T06:17:51.200Z,100.00
2023-04-09T06:18:24.907Z,100.00
2023-04-09T06:19:05.080Z,100.00
2023-04-09T06:19:39.158Z,100.00
2023-04-09T06:20:12.830Z,100.00
2023-04-09T06:20:53.180Z,100.00
2023-04-09T06:21:27.458Z,100.00
2023-04-09T06:22:02.008Z,100.00
2023-04-09T06:22:42.181Z,100.00
2023-04-09T06:23:16.283Z,100.00
2023-04-09T06:23:50.542Z,100.00
2023-04-09T06:24:31.364Z,100.00
2023-04-09T06:25:05.262Z,100.00
2023-04-09T06:25:40.087Z,100.00
2023-04-09T06:26:23.158Z,100.00
2023-04-09T06:26:57.242Z,100.00
2023-04-09T06:27:33.249Z,100.00
2023-04-09T06:28:15.171Z,100.00
2023-04-09T06:28:49.194Z,100.00
2023-04-09T06:29:24.578Z,100.00
2023-04-09T06:30:05.080Z,100.00
2023-04-09T06:30:39.234Z,100.00
2023-04-09T06:31:12.882Z,100.00
2023-04-09T06:31:54.082Z,100.00
2023-04-09T06:32:28.296Z,100.00
2023-04-09T06:33:01.876Z,100.00
2023-04-09T06:33:43.043Z,100.00
2023-04-09T06:34:17.256Z,100.00
2023-04-09T06:34:50.811Z,100.00
2023-04-09T06:35:31.364Z,100.00
2023-04-09T06:36:06.258Z,100.00
2023-04-09T06:36:54.082Z,100.00
2023-04-09T06:37:35.707Z,100.00
2023-04-09T06:38:17.097Z,100.00
2023-04-09T06:38:57.712Z,100.00
2023-04-09T06:39:42.480Z,100.00
2023-04-09T06:40:28.242Z,100.00
2023-04-09T06:41:10.268Z,100.00
2023-04-09T06:41:51.167Z,100.00
2023-04-09T06:42:31.080Z,100.00
2023-04-09T06:43:12.186Z,100.00
2023-04-09T06:43:52.208Z,100.00
2023-04-09T06:44:33.250Z,100.00
2023-04-09T06:45:17.230Z,100.00
2023-04-09T06:45:58.395Z,100.00
2023-04-09T06:46:39.076Z,100.00
2023-04-09T06:47:19.289Z,100.00
2023-04-09T06:48:07.083Z,100.00
2023-04-09T06:48:42.494Z,100.00
2023-04-09T06:49:29.049Z,100.00
2023-04-09T06:50:03.225Z,100.00
2023-04-09T06:50:51.094Z,100.00
2023-04-09T06:51:25.292Z,100.00
2023-04-09T06:52:14.037Z,100.00
2023-04-09T06:52:48.140Z,100.00
2023-04-09T06:53:28.081Z,100.00
2023-04-09T06:54:08.144Z,100.00
2023-04-09T06:54:49.070Z,100.00
2023-04-09T06:55:29.382Z,100.00
2023-04-09T06:56:10.069Z,100.00
2023-04-09T06:56:50.294Z,100.00
2023-04-09T06:57:30.038Z,100.00
2023-04-09T06:58:11.292Z,100.00
2023-04-09T06:58:51.089Z,100.00
2023-04-09T06:59:31.116Z,100.00
2023-04-09T07:00:12.053Z,100.00
2023-04-09T07:00:53.138Z,100.00
2023-04-09T07:01:34.123Z,100.00
2023-04-09T07:02:16.286Z,100.00
2023-04-09T07:02:57.214Z,100.00
2023-04-09T07:03:38.341Z,100.00
2023-04-09T07:04:19.160Z,100.00
2023-04-09T07:04:59.091Z,100.00
2023-04-09T07:05:40.050Z,100.00
2023-04-09T07:06:21.205Z,100.00
2023-04-09T07:07:03.051Z,100.00
2023-04-09T07:07:43.185Z,100.00
2023-04-09T07:08:23.085Z,100.00
2023-04-09T07:09:03.255Z,100.00
2023-04-09T07:09:43.045Z,100.00
2023-04-09T07:10:24.103Z,100.00
2023-04-09T07:11:05.050Z,100.00
2023-04-09T07:11:45.423Z,100.00
2023-04-09T07:12:40.034Z,100.00
2023-04-09T07:13:20.660Z,100.00
2023-04-09T07:14:03.038Z,100.00
2023-04-09T07:14:50.110Z,100.00
2023-04-09T07:15:44.232Z,100.00
2023-04-09T07:16:39.059Z,100.00
2023-04-09T07:17:34.148Z,100.00
2023-04-09T07:18:28.053Z,100.00
2023-04-09T07:19:22.044Z,100.00
2023-04-09T07:20:10.040Z,100.00
2023-04-09T07:20:44.279Z,100.00
2023-04-09T07:21:31.034Z,100.00
2023-04-09T07:22:05.247Z,100.00
2023-04-09T07:22:52.044Z,100.00
2023-04-09T07:23:26.286Z,100.00
2023-04-09T07:24:14.030Z,100.00
2023-04-09T07:24:53.508Z,100.00
2023-04-09T07:25:33.024Z,100.00
2023-04-09T07:26:14.141Z,100.00
2023-04-09T07:26:54.037Z,100.00
2023-04-09T07:27:35.141Z,100.00
2023-04-09T07:28:16.022Z,100.00
2023-04-09T07:28:56.213Z,100.00
2023-04-09T07:29:36.013Z,100.00
2023-04-09T07:30:17.122Z,100.00
2023-04-09T07:30:58.112Z,100.00
2023-04-09T07:31:38.330Z,100.00
2023-04-09T07:32:19.073Z,100.00
2023-04-09T07:32:59.318Z,100.00
2023-04-09T07:33:39.101Z,100.00
2023-04-09T07:34:20.134Z,100.00
2023-04-09T07:35:02.045Z,100.00
2023-04-09T07:35:42.328Z,100.00
2023-04-09T07:36:23.102Z,100.00
2023-04-09T07:37:03.117Z,100.00
2023-04-09T07:37:44.040Z,100.00
2023-04-09T07:38:25.103Z,100.00
2023-04-09T07:39:04.993Z,100.00
2023-04-09T07:39:45.289Z,100.00
2023-04-09T07:40:25.804Z,100.00
2023-04-09T07:41:06.239Z,100.00
2023-04-09T07:41:46.329Z,100.00
2023-04-09T07:42:27.340Z,100.00
2023-04-09T07:43:07.019Z,100.00
2023-04-09T07:43:48.217Z,100.00
2023-04-09T07:44:28.023Z,100.00
2023-04-09T07:45:08.175Z,100.00
2023-04-09T07:45:48.034Z,100.00
2023-04-09T07:46:29.122Z,100.00
2023-04-09T07:47:11.020Z,100.00
2023-04-09T07:47:51.689Z,100.00
2023-04-09T07:48:31.993Z,100.00
2023-04-09T07:49:12.219Z,100.00
2023-04-09T07:49:54.013Z,100.00
2023-04-09T07:50:34.122Z,100.00
2023-04-09T07:51:14.980Z,100.00
2023-04-09T07:51:55.353Z,100.00
2023-04-09T07:52:34.989Z,100.00
2023-04-09T07:53:15.206Z,100.00
2023-04-09T07:53:56.002Z,100.00
2023-04-09T07:54:36.076Z,100.00
2023-04-09T07:55:18.438Z,100.00
2023-04-09T07:55:59.070Z,100.00
2023-04-09T07:56:38.991Z,100.00
2023-04-09T07:57:19.290Z,100.00
2023-04-09T07:58:00.061Z,100.00
2023-04-09T07:58:41.246Z,100.00
2023-04-09T07:59:23.986Z,100.00
2023-04-09T08:00:04.134Z,100.00
2023-04-09T08:00:44.078Z,100.00
2023-04-09T08:01:26.052Z,100.00
2023-04-09T08:02:07.112Z,100.00
2023-04-09T08:02:48.246Z,100.00
2023-04-09T08:03:30.212Z,100.00
2023-04-09T08:04:13.042Z,100.00
2023-04-09T08:04:53.037Z,100.00
2023-04-09T08:05:33.095Z,100.00
2023-04-09T08:06:14.042Z,100.00
2023-04-09T08:06:55.283Z,100.00
2023-04-09T08:07:35.147Z,100.00
2023-04-09T08:08:15.362Z,100.00
2023-04-09T08:08:55.193Z,100.00
2023-04-09T08:09:35.378Z,100.00
2023-04-09T08:10:19.957Z,100.00
2023-04-09T08:11:00.226Z,100.00
2023-04-09T08:11:39.963Z,100.00
2023-04-09T08:12:20.137Z,100.00
2023-04-09T08:13:00.031Z,100.00
2023-04-09T08:13:40.567Z,100.00
2023-04-09T08:14:22.987Z,100.00
2023-04-09T08:15:03.848Z,100.00
2023-04-09T08:15:43.980Z,100.00
2023-04-09T08:16:24.615Z,100.00
2023-04-09T08:17:06.025Z,100.00
2023-04-09T08:17:48.080Z,100.00
2023-04-09T08:18:28.242Z,100.00
2023-04-09T08:19:09.102Z,100.00
2023-04-09T08:19:56.375Z,100.00
2023-04-09T08:20:37.158Z,100.00
2023-04-09T08:21:16.982Z,100.00
2023-04-09T08:21:58.734Z,100.00
2023-04-09T08:22:41.040Z,100.00
2023-04-09T08:23:22.182Z,100.00
2023-04-09T08:24:08.040Z,100.00
2023-04-09T08:24:49.033Z,100.00
2023-04-09T08:25:30.031Z,100.00
2023-04-09T08:26:10.334Z,100.00
2023-04-09T08:26:50.964Z,100.00
2023-04-09T08:27:33.176Z,100.00
2023-04-09T08:28:13.019Z,100.00
2023-04-09T08:28:53.200Z,100.00
2023-04-09T08:29:33.981Z,100.00
2023-04-09T08:30:16.854Z,100.00
2023-04-09T08:30:58.040Z,100.00
2023-04-09T08:31:39.259Z,100.00
2023-04-09T08:32:18.998Z,100.00
2023-04-09T08:32:59.240Z,100.00
2023-04-09T08:33:38.967Z,100.00
2023-04-09T08:34:21.142Z,100.00
2023-04-09T08:35:00.922Z,100.00
2023-04-09T08:35:41.509Z,100.00
2023-04-09T08:36:22.983Z,100.00
2023-04-09T08:37:03.086Z,100.00
2023-04-09T08:37:42.972Z,100.00
2023-04-09T08:38:23.018Z,100.00
2023-04-09T08:39:04.164Z,100.00
2023-04-09T08:39:45.293Z,100.00
2023-04-09T08:40:25.007Z,100.00
2023-04-09T08:41:05.165Z,100.00
2023-04-09T08:41:50.977Z,100.00
2023-04-09T08:42:31.999Z,100.00
2023-04-09T08:43:14.121Z,100.00
2023-04-09T08:43:58.219Z,100.00
2023-04-09T08:44:38.944Z,100.00
2023-04-09T08:45:20.028Z,100.00
2023-04-09T08:46:03.971Z,100.00
2023-04-09T08:46:44.739Z,100.00
2023-04-09T08:47:27.020Z,100.00
2023-04-09T08:48:24.055Z,100.00
2023-04-09T08:49:18.038Z,100.00
2023-04-09T08:50:12.101Z,100.00
2023-04-09T08:51:06.918Z,100.00
2023-04-09T08:52:03.982Z,100.00
2023-04-09T08:52:55.141Z,100.00
2023-04-09T08:53:30.059Z,100.00
2023-04-09T08:54:26.980Z,100.00
2023-04-09T08:55:01.330Z,100.00
2023-04-09T08:55:51.917Z,100.00
2023-04-09T08:56:27.044Z,100.00
2023-04-09T08:57:14.004Z,100.00